Time;durP1;ratioP1;P1;durP2;ratioP2;P2;SDS_P1;SDS_P2;PMS_P1;PMS_P2;Temp;Humidity;BMP_temperature;BMP_pressure;BME280_temperature;BME280_humidity;BME280_pressure;Samples;Min_cycle;Max_cycle;Signal;HPM_P1;HPM_P2
2022/06/06 00:02:03;;;;;;;15.43;14.02;;;19.10;99.90;;;-141.84;99.52;16943.19;5070597;28;20224;-53
2022/06/06 00:04:31;;;;;;;14.30;13.07;;;19.20;99.90;;;-141.84;99.37;16957.41;5070652;28;20784;-54
2022/06/06 00:07:00;;;;;;;14.10;12.90;;;19.20;99.90;;;-141.84;98.78;17018.31;5070524;28;20228;-57
2022/06/06 00:09:29;;;;;;;12.90;11.80;;;19.20;99.90;;;-141.84;99.15;16957.41;5071376;28;20215;-55
2022/06/06 00:11:59;;;;;;;11.68;10.57;;;19.20;99.90;;;-141.84;96.53;17077.22;5070154;28;20244;-55
2022/06/06 00:14:28;;;;;;;11.27;10.38;;;19.20;99.90;;;-141.84;97.39;17067.06;5070424;28;20343;-56
2022/06/06 00:16:57;;;;;;;12.85;11.60;;;19.20;99.90;;;-141.84;98.32;17018.31;5070127;28;20645;-56
2022/06/06 00:19:27;;;;;;;12.13;11.02;;;19.20;99.90;;;-141.84;99.48;16935.06;5070502;28;20248;-55
2022/06/06 00:21:55;;;;;;;11.82;10.70;;;19.10;99.90;;;-141.84;99.91;16926.94;5070042;28;20715;-54
2022/06/06 00:24:24;;;;;;;10.40;9.50;;;19.00;99.90;;;-141.84;99.03;16983.78;5070710;28;20725;-54
2022/06/06 00:26:52;;;;;;;9.50;8.68;;;19.00;99.90;;;-141.84;98.69;16977.69;5070083;28;20308;-56
2022/06/06 00:29:22;;;;;;;9.10;8.30;;;19.00;99.90;;;-141.84;97.28;17060.97;5050259;28;20260;-56
2022/06/06 00:34:49;;;;;;;7.93;7.22;;;19.00;99.90;;;-141.84;93.88;17201.09;5070283;28;20231;-56
2022/06/06 00:37:26;;;;;;;6.47;5.88;;;19.10;99.90;;;-141.84;92.71;17270.16;5069819;28;20779;-54
2022/06/06 00:39:56;;;;;;;6.72;6.13;;;19.20;99.90;;;-141.84;92.69;17290.47;5070106;28;20730;-53
2022/06/06 00:42:28;;;;;;;6.10;5.60;;;19.10;99.90;;;-141.84;91.84;17312.81;5070600;28;20280;-56
2022/06/06 00:45:23;;;;;;;6.32;5.80;;;19.20;99.90;;;-141.84;92.79;17225.47;5069964;28;20307;-54
2022/06/06 00:48:00;;;;;;;6.05;5.55;;;19.10;99.90;;;-141.84;93.02;17296.56;5070050;28;20225;-55
2022/06/06 00:50:40;;;;;;;5.60;5.13;;;19.10;99.90;;;-141.84;93.76;17231.56;5069795;28;20224;-54
2022/06/06 00:53:09;;;;;;;5.47;5.07;;;19.00;99.90;;;-141.84;91.08;17375.78;5069803;28;20737;-55
2022/06/06 00:55:44;;;;;;;5.18;4.78;;;19.00;99.90;;;-141.84;91.69;17355.47;5069854;28;20731;-55
2022/06/06 00:58:17;;;;;;;5.38;4.88;;;19.00;99.90;;;-141.84;90.44;17420.47;5070910;28;20310;-54
2022/06/06 01:00:48;;;;;;;5.38;4.88;;;19.00;99.90;;;-141.84;90.98;17381.88;5074093;28;20280;-56
2022/06/06 01:03:21;;;;;;;4.90;4.50;;;19.00;99.90;;;-141.84;90.49;17412.34;5074688;28;20273;-54
2022/06/06 01:05:51;;;;;;;5.55;5.05;;;19.00;99.90;;;-141.84;91.39;17349.38;5073900;28;20224;-55
2022/06/06 01:08:22;;;;;;;5.35;4.63;;;19.00;99.90;;;-141.84;89.80;17446.88;5073861;28;20221;-56
2022/06/06 01:10:51;;;;;;;4.82;4.35;;;19.10;99.90;;;-141.84;90.82;17428.59;5074105;28;20661;-53
2022/06/06 01:13:23;;;;;;;6.20;4.88;;;19.00;99.90;;;-141.84;91.04;17377.81;5073187;28;20803;-55
2022/06/06 01:16:22;;;;;;;4.63;4.20;;;18.90;99.90;;;-141.84;90.41;17436.72;5074187;28;20601;-56
2022/06/06 01:19:09;;;;;;;4.68;4.38;;;18.90;99.90;;;-141.84;91.56;17351.41;5073817;28;20274;-54
2022/06/06 01:22:35;;;;;;;4.68;4.28;;;18.90;99.90;;;-141.84;92.69;17325.00;5073612;28;20187;-54
2022/06/06 01:25:43;;;;;;;4.57;4.18;;;18.80;99.90;;;-141.84;90.28;17410.31;5073504;28;20229;-54
2022/06/06 01:28:39;;;;;;;4.40;4.00;;;18.80;99.90;;;-141.84;90.09;17418.44;5063401;28;20235;-55
2022/06/06 01:31:15;;;;;;;6.60;4.50;;;18.80;99.90;;;-141.84;89.23;17477.31;5054233;28;20528;-54
2022/06/06 01:33:52;;;;;;;4.53;4.18;;;18.80;99.90;;;-141.84;88.77;17534.19;5069393;28;20208;-53
2022/06/06 01:36:23;;;;;;;4.75;4.35;;;18.80;99.90;;;-141.84;90.48;17402.19;5074346;28;20233;-55
2022/06/06 01:38:51;;;;;;;4.53;4.20;;;18.70;99.90;;;-141.84;91.71;17343.28;5073555;28;20307;-52
2022/06/06 01:41:38;;;;;;;4.40;4.10;;;18.60;99.90;;;-141.84;91.67;17347.34;5073480;28;20235;-55
2022/06/06 01:44:20;;;;;;;4.03;3.72;;;18.60;99.90;;;-141.84;91.68;17325.00;5073701;28;20228;-55
2022/06/06 01:46:50;;;;;;;4.80;4.13;;;18.50;99.90;;;-141.84;91.76;17339.22;5073545;28;20719;-58
2022/06/06 01:49:23;;;;;;;4.53;4.10;;;18.40;99.90;;;-141.84;91.32;17331.09;5073366;28;20228;-51
2022/06/06 01:52:13;;;;;;;5.13;4.03;;;18.50;99.90;;;-141.84;90.87;17345.31;5073352;28;20611;-55
2022/06/06 01:54:43;;;;;;;4.20;3.80;;;18.40;99.90;;;-141.84;90.75;17406.25;5073172;28;20208;-56
2022/06/06 01:57:17;;;;;;;4.13;3.83;;;18.40;99.90;;;-141.84;91.64;17345.31;5074033;28;20270;-57
2022/06/06 01:59:46;;;;;;;3.97;3.67;;;18.40;99.90;;;-141.84;89.17;17497.63;5073292;28;20228;-57
2022/06/06 02:02:15;;;;;;;4.28;3.80;;;18.50;99.90;;;-141.84;88.50;17546.38;5073315;28;20236;-53
2022/06/06 02:04:43;;;;;;;3.92;3.63;;;18.50;99.90;;;-141.84;88.61;17550.44;5073206;28;20231;-56
2022/06/06 02:07:12;;;;;;;5.65;3.70;;;18.50;99.90;;;-141.84;90.32;17379.84;5073207;28;20311;-53
2022/06/06 02:09:41;;;;;;;5.38;3.70;;;18.40;99.90;;;-141.84;90.14;17428.59;5071655;28;20208;-55
2022/06/06 02:12:10;;;;;;;4.53;4.10;;;18.30;99.90;;;-141.84;90.92;17383.91;5073554;28;20204;-55
2022/06/06 02:14:39;;;;;;;5.57;3.80;;;18.30;99.90;;;-141.84;91.39;17322.97;5072834;28;20234;-56
2022/06/06 02:17:08;;;;;;;3.80;3.47;;;18.20;99.90;;;-141.84;89.77;17428.59;5073119;28;20233;-54
2022/06/06 02:19:37;;;;;;;3.65;3.35;;;18.30;99.90;;;-141.84;89.31;17481.38;5072616;28;20231;-55
2022/06/06 02:22:06;;;;;;;3.70;3.40;;;18.30;99.90;;;-141.84;88.45;17542.31;5072537;28;20239;-55
2022/06/06 02:24:34;;;;;;;3.88;3.45;;;18.30;99.90;;;-141.84;89.62;17465.13;5072430;28;20720;-54
2022/06/06 02:27:02;;;;;;;4.13;3.25;;;18.30;99.90;;;-141.84;88.94;17505.75;5072744;28;20724;-53
2022/06/06 02:29:30;;;;;;;4.55;3.38;;;18.30;99.90;;;-141.84;89.03;17501.69;5072470;28;20743;-54
2022/06/06 02:31:59;;;;;;;3.80;3.40;;;18.20;99.90;;;-141.84;87.90;17580.91;5072397;28;20232;-54
2022/06/06 02:34:29;;;;;;;3.42;3.13;;;18.20;99.90;;;-141.84;89.42;17473.25;5072258;28;20256;-55
2022/06/06 02:36:57;;;;;;;3.20;3.00;;;18.20;99.90;;;-141.84;90.46;17434.69;5072485;28;20227;-55
2022/06/06 02:39:28;;;;;;;3.55;3.13;;;18.10;99.90;;;-141.84;89.91;17475.28;5072930;28;20205;-57
2022/06/06 02:41:56;;;;;;;3.13;2.90;;;18.10;99.90;;;-141.84;90.56;17442.81;5072095;28;20327;-55
2022/06/06 02:44:25;;;;;;;3.42;3.08;;;18.10;99.90;;;-141.84;90.50;17420.47;5072239;28;20323;-56
2022/06/06 02:46:53;;;;;;;3.42;3.08;;;18.00;99.90;;;-141.84;88.81;17524.03;5072167;28;20232;-55
2022/06/06 02:49:21;;;;;;;3.03;2.83;;;18.10;99.90;;;-141.84;87.85;17595.13;5072106;28;20224;-54
2022/06/06 02:51:51;;;;;;;3.03;2.83;;;18.10;99.90;;;-141.84;88.19;17550.44;5072258;28;20407;-54
2022/06/06 02:54:19;;;;;;;3.17;2.97;;;18.10;99.90;;;-141.84;88.40;17566.69;5072223;28;20587;-56
2022/06/06 02:56:47;;;;;;;4.72;2.95;;;18.00;99.90;;;-141.84;89.73;17519.97;5071851;28;20224;-54
2022/06/06 02:59:20;;;;;;;3.40;3.13;;;18.00;99.90;;;-141.84;90.71;17396.09;5071985;28;20408;-55
2022/06/06 03:01:49;;;;;;;3.17;2.85;;;17.90;99.90;;;-141.84;91.78;17325.00;5071963;28;20231;-57
2022/06/06 03:04:17;;;;;;;3.35;2.70;;;17.80;99.90;;;-141.84;90.94;17414.38;5072075;28;20259;-54
2022/06/06 03:07:02;;;;;;;3.03;2.83;;;17.80;99.90;;;-141.84;91.33;17347.34;5071666;28;20300;-57
2022/06/06 03:09:45;;;;;;;3.60;3.30;;;17.70;99.90;;;-141.84;90.52;17416.41;5052112;28;20634;-54
2022/06/06 03:12:44;;;;;;;3.15;2.85;;;17.70;99.90;;;-141.84;90.56;17375.78;5052041;28;20220;-53
2022/06/06 03:15:38;;;;;;;3.75;3.00;;;17.70;99.90;;;-141.84;90.69;17414.38;5051756;28;20585;-57
2022/06/06 03:21:27;;;;;;;3.20;3.00;;;17.70;99.90;;;-141.84;90.91;17375.78;5071398;28;20216;-55
2022/06/06 03:24:16;;;;;;;2.97;2.70;;;17.60;99.90;;;-141.84;90.84;17383.91;5071413;28;20305;-56
2022/06/06 03:27:11;;;;;;;3.45;3.15;;;17.70;99.90;;;-141.84;89.75;17448.91;5071157;28;20251;-56
2022/06/06 03:30:00;;;;;;;3.25;3.00;;;17.70;99.90;;;-141.84;89.52;17452.97;5051266;28;20230;-57
2022/06/06 03:32:50;;;;;;;3.22;2.92;;;17.70;99.90;;;-141.84;90.21;17416.41;5056804;28;20224;-54
2022/06/06 03:35:35;;;;;;;3.60;3.10;;;17.70;99.90;;;-141.84;90.80;17392.03;5070982;28;20255;-56
2022/06/06 03:38:11;;;;;;;4.15;3.20;;;17.70;99.90;;;-141.84;90.25;17410.31;5071220;28;20235;-55
2022/06/06 03:41:01;;;;;;;5.43;3.20;;;17.70;99.90;;;-141.84;90.85;17367.66;5071180;28;20228;-55
2022/06/06 03:43:42;;;;;;;3.15;2.85;;;17.70;99.90;;;-141.84;91.78;17327.03;5071390;28;20263;-56
2022/06/06 03:46:30;;;;;;;3.17;2.97;;;17.60;99.90;;;-141.84;92.28;17294.53;5071378;28;20227;-55
2022/06/06 03:49:17;;;;;;;3.83;2.95;;;17.60;99.90;;;-141.84;91.08;17347.34;5070965;28;20822;-56
2022/06/06 03:52:01;;;;;;;2.90;2.70;;;17.60;99.90;;;-141.84;91.16;17341.25;5070908;28;20608;-54
2022/06/06 03:54:46;;;;;;;3.70;2.78;;;17.60;99.90;;;-141.84;91.69;17318.91;5071148;28;20311;-54
2022/06/06 03:57:19;;;;;;;2.90;2.70;;;17.60;99.90;;;-141.84;91.39;17318.91;5071030;28;20673;-53
2022/06/06 03:59:51;;;;;;;3.05;2.83;;;17.60;99.90;;;-141.84;92.12;17312.81;5070612;28;20232;-53
2022/06/06 04:02:26;;;;;;;3.67;3.17;;;17.60;99.90;;;-141.84;92.48;17270.16;5070713;28;20224;-54
2022/06/06 04:04:55;;;;;;;3.45;3.08;;;17.60;99.90;;;-141.84;92.42;17268.13;5070798;28;20238;-56
2022/06/06 04:07:23;;;;;;;3.30;3.00;;;17.50;99.90;;;-141.84;92.72;17217.34;5070993;28;20234;-54
2022/06/06 04:09:52;;;;;;;3.30;3.10;;;17.50;99.90;;;-141.84;93.57;17249.84;5070780;28;20196;-56
2022/06/06 04:12:53;;;;;;;3.67;2.85;;;17.40;99.90;;;-141.84;92.64;17229.53;5070604;28;20612;-56
2022/06/06 04:15:33;;;;;;;3.65;3.35;;;17.40;99.90;;;-141.84;93.44;17184.84;5070330;28;20221;-55
2022/06/06 04:18:19;;;;;;;3.85;3.20;;;17.30;99.90;;;-141.84;94.24;17156.41;5070837;28;20289;-54
2022/06/06 04:21:02;;;;;;;3.80;2.90;;;17.30;99.90;;;-141.84;94.08;17146.28;5070021;28;20612;-56
2022/06/06 04:23:58;;;;;;;3.15;2.95;;;17.30;99.90;;;-141.84;93.20;17176.72;5070369;28;20259;-56
2022/06/06 04:26:38;;;;;;;3.40;3.10;;;17.30;99.90;;;-141.84;93.18;17178.75;5070121;28;20698;-55
2022/06/06 04:29:31;;;;;;;5.18;3.03;;;17.20;99.90;;;-141.84;92.95;17233.59;5070279;28;20235;-54
2022/06/06 04:32:12;;;;;;;3.17;2.97;;;17.20;99.90;;;-141.84;93.76;17201.09;5070121;28;20239;-56
2022/06/06 04:34:54;;;;;;;3.08;2.88;;;17.10;99.90;;;-141.84;93.28;17164.53;5069809;28;20254;-55
2022/06/06 04:37:35;;;;;;;3.22;2.92;;;17.10;99.90;;;-141.84;93.24;17188.91;5070068;28;20255;-53
2022/06/06 04:40:15;;;;;;;4.45;3.03;;;17.20;99.90;;;-141.84;92.52;17235.63;5070037;28;20227;-55
2022/06/06 04:42:52;;;;;;;3.70;3.40;;;17.30;99.90;;;-141.84;90.87;17377.81;5070029;28;20275;-54
2022/06/06 04:45:36;;;;;;;3.38;2.95;;;17.50;99.90;;;-141.84;90.60;17426.56;5070780;28;20185;-53
2022/06/06 04:48:06;;;;;;;2.85;2.58;;;17.60;99.90;;;-141.84;90.02;17507.78;5070640;28;20319;-55
2022/06/06 04:50:36;;;;;;;2.75;2.55;;;17.80;99.90;;;-141.84;81.56;17950.63;5069883;28;20308;-54
2022/06/06 04:53:11;;;;;;;2.50;2.30;;;18.50;99.90;;;-141.84;73.54;18425.97;5070044;28;20759;-56
2022/06/06 04:55:43;;;;;;;2.30;2.15;;;19.90;99.90;;;-141.84;62.85;19007.06;5069967;28;20327;-57
2022/06/06 04:58:13;;;;;;;1.98;1.88;;;21.50;99.90;;;-141.84;54.32;19401.28;5069686;28;20224;-56
2022/06/06 05:00:44;;;;;;;1.90;1.80;;;22.60;99.90;;;-141.84;47.91;19695.97;5070174;28;20735;-58
2022/06/06 05:03:13;;;;;;;1.90;1.80;;;23.90;99.90;;;-141.84;43.31;20118.69;5070572;28;20200;-56
2022/06/06 05:06:01;;;;;;;2.33;2.00;;;24.70;99.90;;;-141.84;41.37;20301.63;5069670;28;20228;-58
2022/06/06 05:08:52;;;;;;;2.40;1.98;;;25.10;99.90;;;-141.84;40.93;20344.31;5069766;28;20315;-55
2022/06/06 05:11:44;;;;;;;1.88;1.77;;;25.70;99.90;;;-141.84;39.76;20504.91;5069625;28;20236;-58
2022/06/06 05:14:36;;;;;;;2.22;2.08;;;26.40;99.90;;;-141.84;38.77;20657.34;5070151;28;20324;-56
2022/06/06 05:17:42;;;;;;;3.92;1.90;;;26.50;99.90;;;-141.84;39.09;20594.34;5069679;28;20230;-56
2022/06/06 05:20:30;;;;;;;1.98;1.88;;;26.60;99.90;;;-141.84;38.82;20632.97;5054006;28;20281;-55
2022/06/06 05:23:22;;;;;;;1.83;1.60;;;26.70;99.90;;;-141.84;38.36;20714.28;5069615;28;20228;-54
2022/06/06 05:26:16;;;;;;;1.98;1.83;;;26.50;99.90;;;-141.84;37.33;20789.50;5049501;28;20743;-56
2022/06/06 05:29:30;;;;;;;4.10;1.90;;;27.00;99.90;;;-141.84;38.60;20626.88;5064380;28;20716;-55
2022/06/06 05:32:24;;;;;;;2.65;1.80;;;26.20;99.90;;;-141.84;39.03;20537.44;5050781;28;20236;-56
2022/06/06 05:35:08;;;;;;;2.10;1.90;;;26.40;99.90;;;-141.84;40.35;20391.06;5069704;28;20320;-55
2022/06/06 05:37:58;;;;;;;2.50;2.10;;;25.70;99.90;;;-141.84;42.88;20134.97;5069393;28;20233;-57
2022/06/06 05:40:39;;;;;;;2.55;2.35;;;25.20;99.90;;;-141.84;47.79;19754.91;5069532;28;20238;-55
2022/06/06 05:43:27;;;;;;;2.45;2.25;;;24.30;99.90;;;-141.84;51.51;19525.25;5069470;28;20224;-53
2022/06/06 05:46:15;;;;;;;2.50;2.30;;;23.40;99.90;;;-141.84;53.55;19391.13;5073515;28;20225;-55
2022/06/06 05:49:15;;;;;;;2.70;2.40;;;23.00;99.90;;;-141.84;56.30;19261.06;5073244;28;20212;-56
2022/06/06 05:52:07;;;;;;;2.97;2.25;;;22.70;99.90;;;-141.84;56.86;19218.41;5072857;28;20189;-56
2022/06/06 05:55:07;;;;;;;2.55;2.35;;;22.50;99.90;;;-141.84;57.79;19153.38;5073089;28;20215;-55
2022/06/06 05:58:08;;;;;;;4.43;2.30;;;22.40;99.90;;;-141.84;57.63;19179.78;5073272;28;20181;-54
2022/06/06 06:00:57;;;;;;;2.55;2.35;;;22.30;99.90;;;-141.84;57.20;19173.69;5072979;28;20743;-55
2022/06/06 06:03:56;;;;;;;2.67;2.33;;;22.30;99.90;;;-141.84;58.25;19139.16;5073558;28;20207;-55
2022/06/06 06:06:35;;;;;;;2.65;2.15;;;22.30;99.90;;;-141.84;58.14;19108.69;5073110;28;20219;-55
2022/06/06 06:09:29;;;;;;;2.60;2.40;;;22.20;99.90;;;-141.84;58.81;19131.03;5060992;28;20648;-59
2022/06/06 06:12:25;;;;;;;2.22;2.10;;;22.10;99.90;;;-141.84;58.80;19102.56;5070642;28;20220;-55
2022/06/06 06:15:10;;;;;;;2.55;2.35;;;22.20;99.90;;;-141.84;58.35;19147.28;5052694;28;20225;-57
2022/06/06 06:17:40;;;;;;;3.72;2.50;;;22.20;99.90;;;-141.84;56.22;19196.06;5061145;28;20227;-55
2022/06/06 06:20:12;;;;;;;2.38;2.17;;;22.30;99.90;;;-141.84;56.26;19198.09;5066565;28;20327;-57
2022/06/06 06:22:55;;;;;;;2.22;2.03;;;22.40;99.90;;;-141.84;57.32;19179.78;5072177;28;20246;-55
2022/06/06 06:25:26;;;;;;;2.60;2.40;;;22.30;99.90;;;-141.84;55.34;19208.25;5072110;28;20604;-56
2022/06/06 06:28:04;;;;;;;2.00;1.90;;;22.40;99.90;;;-141.84;57.06;19181.81;5066270;28;20236;-54
2022/06/06 06:30:56;;;;;;;2.80;2.00;;;22.40;99.90;;;-141.84;56.59;19177.75;5063464;28;20334;-57
2022/06/06 06:33:45;;;;;;;2.25;2.05;;;22.40;99.90;;;-141.84;55.85;19163.53;5069064;28;20196;-55
2022/06/06 06:36:33;;;;;;;2.40;2.28;;;22.30;99.90;;;-141.84;56.19;19173.69;5072277;28;20229;-56
2022/06/06 06:39:30;;;;;;;2.58;2.30;;;22.30;99.90;;;-141.84;56.39;19175.72;5068014;28;20223;-55
2022/06/06 06:42:23;;;;;;;2.45;2.10;;;22.30;99.90;;;-141.84;58.51;19108.69;5070937;28;20240;-57
2022/06/06 06:45:01;;;;;;;3.15;2.90;;;22.30;99.90;;;-141.84;57.62;19179.78;5070281;28;20224;-57
2022/06/06 06:47:34;;;;;;;2.70;2.50;;;22.40;99.90;;;-141.84;56.47;19171.66;5070377;28;20323;-55
2022/06/06 06:50:14;;;;;;;2.55;2.20;;;22.40;99.90;;;-141.84;55.90;19204.19;5072064;28;20582;-57
2022/06/06 06:53:02;;;;;;;2.35;2.17;;;22.30;99.90;;;-141.84;56.95;19167.59;5069054;28;20255;-56
2022/06/06 06:55:43;;;;;;;2.58;2.38;;;22.30;99.90;;;-141.84;56.42;19165.56;5069532;28;20552;-56
2022/06/06 06:58:30;;;;;;;3.08;2.20;;;22.20;99.90;;;-141.84;56.32;19179.78;5072064;28;20673;-56
2022/06/06 07:01:04;;;;;;;2.40;2.20;;;22.30;99.90;;;-141.84;57.39;19171.66;5072047;28;20228;-56
2022/06/06 07:10:08;;;;;;;2.47;2.28;;;22.50;99.90;;;-141.84;55.24;19183.84;5068243;28;20199;-56
2022/06/06 07:13:05;;;;;;;2.47;2.28;;;22.20;99.90;;;-141.84;55.97;19169.63;5066433;28;20192;-55
2022/06/06 07:15:51;;;;;;;4.05;2.60;;;22.10;99.90;;;-141.84;56.12;19173.69;5069270;28;20192;-56
2022/06/06 07:18:25;;;;;;;2.47;2.28;;;22.10;99.90;;;-141.84;54.69;19244.81;5062740;28;20224;-56
2022/06/06 07:20:55;;;;;;;2.60;2.40;;;22.30;99.90;;;-141.84;54.57;19208.25;5070487;28;20228;-58
2022/06/06 07:23:30;;;;;;;2.60;2.40;;;22.30;99.90;;;-141.84;53.88;19295.63;5071334;28;20221;-56
2022/06/06 07:26:00;;;;;;;2.47;2.28;;;22.50;99.90;;;-141.84;53.08;19297.66;5071658;28;20224;-56
2022/06/06 07:28:28;;;;;;;2.30;2.10;;;22.70;99.90;;;-141.84;53.79;19305.78;5068769;28;20324;-55
2022/06/06 07:31:14;;;;;;;2.08;1.98;;;23.00;99.90;;;-141.84;51.72;19391.13;5071307;28;20303;-56
2022/06/06 07:34:21;;;;;;;2.75;2.20;;;23.00;99.90;;;-141.84;51.65;19346.44;5070260;28;20197;-56
2022/06/06 07:37:12;;;;;;;2.40;2.20;;;23.00;99.90;;;-141.84;50.85;19415.50;5064875;28;20402;-55
2022/06/06 07:39:57;;;;;;;2.03;1.88;;;23.10;99.90;;;-141.84;51.64;19429.75;5061831;28;20698;-56
2022/06/06 07:43:05;;;;;;;2.78;2.20;;;23.10;99.90;;;-141.84;51.70;19387.06;5071135;28;20193;-57
2022/06/06 07:45:42;;;;;;;3.15;2.30;;;23.00;99.90;;;-141.84;51.38;19427.72;5053949;28;20298;-56
2022/06/06 07:48:42;;;;;;;3.38;2.22;;;23.10;99.90;;;-141.84;50.27;19435.84;5071076;28;20195;-56
2022/06/06 07:51:30;;;;;;;2.60;2.40;;;23.20;99.90;;;-141.84;50.38;19468.34;5071328;28;20582;-55
2022/06/06 07:54:14;;;;;;;3.47;2.30;;;23.20;99.90;;;-141.84;52.21;19342.34;5071459;28;20280;-55
2022/06/06 07:57:07;;;;;;;3.45;2.40;;;23.00;99.90;;;-141.84;52.45;19336.25;5070823;28;20224;-54
2022/06/06 07:59:53;;;;;;;2.42;2.22;;;22.80;99.90;;;-141.84;53.02;19313.91;5066455;28;20216;-57
2022/06/06 08:03:00;;;;;;;2.67;2.47;;;22.80;99.90;;;-141.84;50.29;19429.75;5070985;28;20306;-57
2022/06/06 08:06:13;;;;;;;77.78;70.90;;;22.90;99.90;;;-141.84;49.26;19511.03;5028150;28;20213;-56
2022/06/06 08:09:18;;;;;;;3.10;2.80;;;23.20;99.90;;;-141.84;50.05;19515.09;5069847;28;20228;-57
2022/06/06 08:12:08;;;;;;;2.70;2.47;;;23.60;99.90;;;-141.84;47.61;19620.78;5056481;28;20247;-56
2022/06/06 08:14:58;;;;;;;2.50;2.30;;;23.80;99.90;;;-141.84;48.13;19565.91;5070581;28;20311;-57
2022/06/06 08:17:39;;;;;;;3.47;2.65;;;23.70;99.90;;;-141.84;46.87;19628.91;5070437;28;20725;-56
2022/06/06 08:20:22;;;;;;;2.80;2.60;;;23.70;99.90;;;-141.84;46.63;19673.59;5068789;28;20230;-56
2022/06/06 08:22:53;;;;;;;2.67;2.38;;;23.90;99.90;;;-141.84;47.02;19708.16;5069780;28;20220;-56
2022/06/06 08:25:22;;;;;;;2.75;2.30;;;24.10;99.90;;;-141.84;46.54;19655.31;5070270;28;20224;-56
2022/06/06 08:27:52;;;;;;;2.70;2.50;;;24.10;99.90;;;-141.84;47.79;19622.81;5070962;28;20626;-56
2022/06/06 08:30:23;;;;;;;2.60;2.40;;;23.90;99.90;;;-141.84;48.26;19549.63;5071594;28;20671;-59
2022/06/06 08:32:51;;;;;;;2.78;2.40;;;23.80;99.90;;;-141.84;48.14;19572.00;5066662;28;20304;-56
2022/06/06 08:35:19;;;;;;;3.38;2.60;;;23.80;99.90;;;-141.84;48.36;19563.88;5069181;28;20688;-57
2022/06/06 08:38:18;;;;;;;2.75;2.55;;;23.80;99.90;;;-141.84;46.62;19651.25;5071115;28;20220;-57
2022/06/06 08:41:37;;;;;;;2.45;2.25;;;23.90;99.90;;;-141.84;46.29;19708.16;5071384;28;20800;-57
2022/06/06 08:44:26;;;;;;;3.72;2.45;;;24.10;99.90;;;-141.84;45.86;19708.16;5051104;28;20219;-55
2022/06/06 08:47:10;;;;;;;3.08;2.78;;;24.20;99.90;;;-141.84;45.31;19777.25;5071627;28;20785;-57
2022/06/06 08:53:50;;;;;;;2.47;2.25;;;24.50;99.90;;;-141.84;45.81;19710.19;5071211;28;20464;-55
2022/06/06 08:57:02;;;;;;;3.10;2.38;;;24.40;99.90;;;-141.84;45.51;19750.84;5048847;28;20221;-56
2022/06/06 09:00:17;;;;;;;2.70;2.50;;;24.40;99.90;;;-141.84;44.65;19809.78;5050552;28;20308;-55
2022/06/06 09:03:31;;;;;;;4.93;2.50;;;24.50;99.90;;;-141.84;44.62;19785.38;5058991;28;20262;-55
2022/06/06 09:07:03;;;;;;;4.70;2.60;;;24.40;99.90;;;-141.84;44.78;19779.28;5070853;28;20292;-55
2022/06/06 09:10:34;;;;;;;2.30;2.10;;;24.50;99.90;;;-141.84;45.00;19777.25;5050947;28;20228;-56
2022/06/06 09:14:01;;;;;;;2.40;2.20;;;24.40;99.90;;;-141.84;45.98;19736.59;5050796;28;20307;-56
2022/06/06 09:17:37;;;;;;;3.67;2.20;;;24.40;99.90;;;-141.84;43.94;19848.38;5050516;28;20235;-57
2022/06/06 09:20:49;;;;;;;2.30;2.10;;;24.40;99.90;;;-141.84;43.64;19850.41;5013659;28;20633;-55
2022/06/06 09:23:58;;;;;;;2.13;1.98;;;24.50;99.90;;;-141.84;43.63;19809.78;5055280;28;20308;-55
2022/06/06 09:26:40;;;;;;;3.45;2.30;;;24.50;99.90;;;-141.84;45.31;19738.66;5074263;28;20303;-58
2022/06/06 09:30:01;;;;;;;3.47;2.17;;;24.20;99.90;;;-141.84;44.85;19767.09;5073404;28;20774;-55
2022/06/06 09:33:26;;;;;;;3.15;2.20;;;24.10;99.90;;;-141.84;45.74;19693.94;5059417;28;20319;-55
2022/06/06 09:36:23;;;;;;;2.38;2.10;;;24.00;99.90;;;-141.84;46.49;19661.41;5074114;28;20303;-55
2022/06/06 09:39:08;;;;;;;2.65;2.10;;;23.80;99.90;;;-141.84;46.43;19657.34;5073819;28;20251;-60
2022/06/06 09:41:40;;;;;;;2.35;2.15;;;23.90;99.90;;;-141.84;45.95;19695.97;5073533;28;20240;-60
2022/06/06 09:44:39;;;;;;;2.50;2.28;;;24.00;99.90;;;-141.84;45.00;19708.16;5073567;28;20263;-60
2022/06/06 09:47:50;;;;;;;2.40;2.20;;;23.90;99.90;;;-141.84;46.35;19700.03;5073859;28;20303;-61
2022/06/06 09:50:56;;;;;;;2.67;2.30;;;23.90;99.90;;;-141.84;46.25;19677.66;5073802;28;20239;-61
2022/06/06 10:01:05;;;;;;;3.00;2.20;;;24.10;99.90;;;-141.84;44.74;19773.19;5074044;28;20231;-60
2022/06/06 10:04:39;;;;;;;2.65;2.25;;;24.20;99.90;;;-141.84;43.33;19834.16;5073431;28;20735;-60
2022/06/06 10:07:59;;;;;;;2.42;2.22;;;24.40;99.90;;;-141.84;42.60;19935.78;5073608;28;20239;-60
2022/06/06 10:11:15;;;;;;;3.67;2.50;;;24.90;99.90;;;-141.84;43.04;19919.53;5073399;28;20231;-60
2022/06/06 10:14:03;;;;;;;2.75;2.15;;;25.00;99.90;;;-141.84;43.20;19815.88;5073232;28;20225;-60
2022/06/06 10:17:18;;;;;;;2.53;2.33;;;24.70;99.90;;;-141.84;43.50;19832.13;5073432;28;20668;-61
2022/06/06 10:20:11;;;;;;;2.20;2.08;;;24.50;99.90;;;-141.84;42.49;19901.22;5073149;28;20307;-60
2022/06/06 10:23:16;;;;;;;2.22;2.03;;;24.60;99.90;;;-141.84;41.89;19945.94;5073269;28;20232;-61
2022/06/06 10:26:17;;;;;;;2.05;1.95;;;24.60;99.90;;;-141.84;41.27;19939.84;5044948;28;20253;-58
2022/06/06 10:29:20;;;;;;;2.10;1.98;;;24.90;99.90;;;-141.84;41.51;20006.91;5067711;28;20224;-60
2022/06/06 10:32:24;;;;;;;2.10;2.00;;;25.10;99.90;;;-141.84;42.17;20000.81;5070917;28;20685;-61
2022/06/06 10:35:18;;;;;;;2.40;2.20;;;25.30;99.90;;;-141.84;40.91;20021.16;5056570;28;20307;-60
2022/06/06 10:38:20;;;;;;;2.10;1.90;;;25.20;99.90;;;-141.84;41.58;19974.41;5066844;28;20324;-61
2022/06/06 10:41:08;;;;;;;2.25;2.05;;;25.20;99.90;;;-141.84;41.52;20019.13;5052426;28;20236;-61
2022/06/06 10:44:20;;;;;;;3.17;2.10;;;25.30;99.90;;;-141.84;41.01;20071.97;5052038;28;20787;-60
2022/06/06 10:47:06;;;;;;;2.15;2.05;;;25.40;99.90;;;-141.84;41.28;20013.00;5061165;28;20220;-60
2022/06/06 10:49:51;;;;;;;2.50;2.30;;;25.60;99.90;;;-141.84;41.20;20055.69;5072144;28;20226;-61
2022/06/06 10:53:00;;;;;;;2.45;2.25;;;25.50;99.90;;;-141.84;41.85;20045.53;5071770;28;20248;-60
2022/06/06 10:56:16;;;;;;;2.25;2.03;;;25.60;99.90;;;-141.84;40.31;20132.94;5071890;28;20767;-60
2022/06/06 10:59:32;;;;;;;2.78;2.13;;;25.80;99.90;;;-141.84;40.12;20147.16;5071481;28;20865;-60
2022/06/06 11:02:52;;;;;;;2.35;2.00;;;25.80;99.90;;;-141.84;40.56;20061.78;5071757;28;20228;-59
2022/06/06 11:06:05;;;;;;;3.65;1.90;;;25.60;99.90;;;-141.84;40.20;20069.94;5032099;28;20293;-60
2022/06/06 11:09:30;;;;;;;2.20;2.03;;;25.40;99.90;;;-141.84;40.66;20071.97;5071600;28;20255;-59
2022/06/06 11:12:35;;;;;;;3.25;1.80;;;25.40;99.90;;;-141.84;39.51;20134.97;5036029;28;20255;-61
2022/06/06 11:15:05;;;;;;;2.08;1.88;;;25.50;99.90;;;-141.84;39.34;20149.19;5071860;28;20216;-62
2022/06/06 11:18:20;;;;;;;2.95;2.10;;;25.50;99.90;;;-141.84;39.78;20134.97;5071436;28;20303;-61
2022/06/06 11:21:38;;;;;;;2.25;2.08;;;25.60;99.90;;;-141.84;38.81;20214.22;5071464;28;20229;-59
2022/06/06 11:24:20;;;;;;;2.30;2.00;;;25.60;99.90;;;-141.84;39.17;20230.50;5071531;28;20223;-59
2022/06/06 11:27:22;;;;;;;2.38;2.10;;;25.80;99.90;;;-141.84;38.77;20313.84;5071459;28;20751;-61
2022/06/06 11:30:11;;;;;;;4.82;2.20;;;26.20;99.90;;;-141.84;39.07;20285.38;5051113;28;20608;-60
2022/06/06 11:33:30;;;;;;;2.28;2.08;;;26.20;99.90;;;-141.84;39.11;20228.47;5067592;28;20303;-60
2022/06/06 11:36:33;;;;;;;2.33;2.13;;;26.00;99.90;;;-141.84;38.84;20210.16;5070881;28;20587;-61
2022/06/06 11:39:35;;;;;;;2.30;1.92;;;26.00;99.90;;;-141.84;39.54;20171.56;5071179;28;20303;-61
2022/06/06 11:42:31;;;;;;;2.30;2.10;;;25.60;99.90;;;-141.84;39.83;20132.94;5071055;28;20299;-60
2022/06/06 11:45:42;;;;;;;2.15;1.92;;;25.40;99.90;;;-141.84;39.57;20102.44;5070966;28;20237;-60
2022/06/06 11:49:05;;;;;;;3.47;2.00;;;25.20;99.90;;;-141.84;39.08;20143.09;5071177;28;20497;-60